Time;durP1;ratioP1;P1;durP2;ratioP2;P2;SDS_P1;SDS_P2;PMS_P1;PMS_P2;Temp;Humidity;BMP_temperature;BMP_pressure;BME280_temperature;BME280_humidity;BME280_pressure;Samples;Min_cycle;Max_cycle;Signal;HPM_P1;HPM_P2
2024/01/17 00:01:21;;;;;;;9.47;7.60;;;;;;;-2.58;100.00;99040.72;5024848;28;20721;-74
2024/01/17 00:03:46;;;;;;;8.73;7.57;;;;;;;-2.54;100.00;99026.44;5019267;28;20243;-75
2024/01/17 00:06:12;;;;;;;9.03;8.03;;;;;;;-2.52;100.00;99033.28;5025603;28;20188;-75
2024/01/17 00:08:38;;;;;;;8.30;7.47;;;;;;;-2.48;100.00;99026.59;5024891;28;20721;-75
2024/01/17 00:11:03;;;;;;;8.93;7.53;;;;;;;-2.45;100.00;99029.22;5022385;28;20207;-75
2024/01/17 00:13:28;;;;;;;8.63;7.17;;;;;;;-2.42;100.00;99016.59;5025010;28;20689;-76
2024/01/17 00:15:54;;;;;;;9.77;7.67;;;;;;;-2.35;100.00;99015.06;5027597;28;20229;-74
2024/01/17 00:18:19;;;;;;;8.83;7.60;;;;;;;-2.33;100.00;99010.88;5019127;28;20274;-77
2024/01/17 00:20:44;;;;;;;8.23;7.30;;;;;;;-2.31;100.00;99007.56;5020913;28;20205;-75
2024/01/17 00:23:10;;;;;;;8.80;7.03;;;;;;;-2.28;100.00;99000.88;5025654;28;20204;-75
2024/01/17 00:25:35;;;;;;;9.20;7.87;;;;;;;-2.25;100.00;99008.50;5024612;28;20191;-78
2024/01/17 00:28:00;;;;;;;7.90;7.10;;;;;;;-2.26;100.00;98995.00;5024890;28;20250;-76
2024/01/17 00:30:26;;;;;;;9.93;8.23;;;;;;;-2.29;100.00;99002.53;5018645;28;20619;-75
2024/01/17 00:32:51;;;;;;;9.47;8.47;;;;;;;-2.30;100.00;99008.41;5021531;28;20194;-75
2024/01/17 00:35:17;;;;;;;9.87;8.07;;;;;;;-2.31;100.00;99004.16;5025387;28;20193;-75
2024/01/17 00:37:42;;;;;;;12.27;9.27;;;;;;;-2.29;100.00;98992.38;5020065;28;20233;-76
2024/01/17 00:40:08;;;;;;;11.17;9.53;;;;;;;-2.30;100.00;99000.81;5022239;28;21089;-75
2024/01/17 00:42:34;;;;;;;11.60;9.10;;;;;;;-2.37;100.00;98994.75;5024776;28;20219;-75
2024/01/17 00:44:59;;;;;;;11.67;9.57;;;;;;;-2.38;100.00;98992.19;5023657;28;20188;-75
2024/01/17 00:47:24;;;;;;;11.90;9.50;;;;;;;-2.38;100.00;98992.19;5024719;28;20216;-75
2024/01/17 00:49:49;;;;;;;11.80;9.17;;;;;;;-2.34;100.00;98999.91;5023202;28;20189;-75
2024/01/17 00:52:15;;;;;;;11.47;9.73;;;;;;;-2.28;100.00;98990.72;5025905;28;20208;-75
2024/01/17 00:54:40;;;;;;;10.13;8.43;;;;;;;-2.23;100.00;98994.19;5023398;28;20189;-75
2024/01/17 00:57:05;;;;;;;8.87;7.97;;;;;;;-2.18;100.00;98997.69;5019429;28;20192;-76
2024/01/17 00:59:31;;;;;;;8.57;7.47;;;;;;;-2.12;100.00;98982.63;5014253;28;20221;-74
2024/01/17 01:01:56;;;;;;;8.87;7.97;;;;;;;-2.05;100.00;98976.00;5024617;28;20209;-75
2024/01/17 01:04:21;;;;;;;9.90;7.97;;;;;;;-2.00;100.00;98957.53;5024300;28;20272;-76
2024/01/17 01:06:47;;;;;;;9.03;7.40;;;;;;;-1.92;100.00;98957.69;5018136;28;20273;-74
2024/01/17 01:09:12;;;;;;;10.53;8.37;;;;;;;-1.89;100.00;98950.13;5014804;28;20792;-74
2024/01/17 01:11:38;;;;;;;10.77;8.93;;;;;;;-1.84;100.00;98950.22;5018696;28;20622;-78
2024/01/17 01:14:03;;;;;;;10.20;8.60;;;;;;;-1.80;100.00;98953.66;5023648;28;20184;-78
2024/01/17 01:16:29;;;;;;;10.60;8.97;;;;;;;-1.79;100.00;98947.78;5021034;28;20184;-75
2024/01/17 01:18:54;;;;;;;9.73;8.43;;;;;;;-1.78;100.00;98937.66;5025130;28;20978;-75
2024/01/17 01:21:20;;;;;;;11.33;9.00;;;;;;;-1.74;100.00;98943.66;5025287;28;20208;-75
2024/01/17 01:23:48;;;;;;;10.70;8.63;;;;;;;-1.76;100.00;98928.38;5027337;28;20216;-74
2024/01/17 01:26:16;;;;;;;13.03;10.07;;;;;;;-1.77;100.00;98921.59;5027065;28;20201;-75
2024/01/17 01:28:41;;;;;;;11.07;9.93;;;;;;;-1.81;100.00;98924.91;5028028;28;20224;-74
2024/01/17 01:31:07;;;;;;;13.53;10.47;;;;;;;-1.87;100.00;98909.59;5031048;28;20203;-75
2024/01/17 01:33:33;;;;;;;11.40;9.90;;;;;;;-1.91;100.00;98911.22;5028907;28;20176;-75
2024/01/17 01:35:58;;;;;;;11.43;8.97;;;;;;;-1.92;100.00;98917.13;5025040;28;20751;-77
2024/01/17 01:38:23;;;;;;;10.07;9.00;;;;;;;-1.86;100.00;98911.31;5024094;28;20202;-75
2024/01/17 01:40:49;;;;;;;9.90;8.47;;;;;;;-1.78;100.00;98908.91;5023652;28;20207;-76
2024/01/17 01:43:21;;;;;;;10.83;8.60;;;;;;;-1.71;100.00;98911.59;5022531;28;20205;-75
2024/01/17 01:46:03;;;;;;;11.20;9.23;;;;;;;-1.65;100.00;98905.75;5022055;28;20200;-75
2024/01/17 01:48:28;;;;;;;9.50;7.90;;;;;;;-1.59;100.00;98895.72;5025083;28;20198;-76
2024/01/17 01:50:53;;;;;;;10.40;9.13;;;;;;;-1.57;100.00;98890.69;5026841;28;20216;-75
2024/01/17 01:53:19;;;;;;;10.43;8.37;;;;;;;-1.51;100.00;98892.47;5042388;28;20203;-76
2024/01/17 01:55:45;;;;;;;10.27;9.13;;;;;;;-1.51;100.00;98892.47;5023615;28;20269;-77
2024/01/17 01:58:10;;;;;;;10.13;8.43;;;;;;;-1.49;100.00;98896.72;5024028;28;20560;-75
2024/01/17 02:00:36;;;;;;;10.77;8.80;;;;;;;-1.46;100.00;98893.41;5024232;28;20195;-76
2024/01/17 02:03:01;;;;;;;9.43;8.53;;;;;;;-1.44;100.00;98887.53;5029278;28;20205;-75
2024/01/17 02:05:27;;;;;;;9.20;7.77;;;;;;;-1.41;100.00;98890.13;5028211;28;20200;-76
2024/01/17 02:07:54;;;;;;;10.40;8.33;;;;;;;-1.38;100.00;98882.56;5027653;28;20959;-75
2024/01/17 02:10:20;;;;;;;10.40;7.57;;;;;;;-1.34;100.00;98874.97;5024438;28;20236;-77
2024/01/17 02:12:46;;;;;;;8.83;7.93;;;;;;;-1.30;100.00;98881.81;5028342;28;20226;-75
2024/01/17 02:15:11;;;;;;;8.97;7.83;;;;;;;-1.27;100.00;98874.25;5029144;28;20194;-75
2024/01/17 02:17:36;;;;;;;8.87;7.83;;;;;;;-1.24;100.00;98869.22;5039058;28;20194;-76
2024/01/17 02:20:02;;;;;;;9.20;7.93;;;;;;;-1.20;100.00;98868.44;5024650;28;20200;-77
2024/01/17 02:22:28;;;;;;;9.10;8.20;;;;;;;-1.17;100.00;98865.94;5027196;28;20221;-75
2024/01/17 02:24:53;;;;;;;10.03;8.20;;;;;;;-1.15;100.00;98866.81;5029569;28;20280;-76
2024/01/17 02:27:18;;;;;;;8.50;7.67;;;;;;;-1.11;100.00;98860.09;5023891;28;20911;-75
2024/01/17 02:29:46;;;;;;;9.97;8.17;;;;;;;-1.09;100.00;98859.31;5019948;28;20199;-76
2024/01/17 02:32:11;;;;;;;10.80;8.10;;;;;;;-1.07;100.00;98859.31;5016465;28;21047;-75
2024/01/17 02:34:37;;;;;;;11.03;7.97;;;;;;;-1.01;100.00;98843.31;5015230;28;20193;-75
2024/01/17 02:37:03;;;;;;;9.13;8.17;;;;;;;-0.96;100.00;98862.03;5028793;28;20269;-76
2024/01/17 02:39:28;;;;;;;8.70;7.80;;;;;;;-0.92;100.00;98858.72;5025906;28;20277;-75
2024/01/17 02:41:54;;;;;;;8.93;8.03;;;;;;;-0.89;100.00;98843.50;5022285;28;20981;-76
2024/01/17 02:44:19;;;;;;;9.50;8.60;;;;;;;-0.84;100.00;98836.78;5021127;28;20259;-76
2024/01/17 02:46:44;;;;;;;10.57;9.47;;;;;;;-0.81;100.00;98831.75;5019006;28;20273;-76
2024/01/17 02:49:14;;;;;;;13.17;10.43;;;;;;;-0.81;100.00;98828.34;5024745;28;20191;-76
2024/01/17 02:51:39;;;;;;;12.50;10.20;;;;;;;-0.87;100.00;98818.97;5024286;28;20220;-77
2024/01/17 02:54:05;;;;;;;10.97;9.77;;;;;;;-0.88;100.00;98819.81;5019673;28;20202;-76
2024/01/17 02:56:31;;;;;;;12.67;9.70;;;;;;;-0.87;100.00;98818.13;5025578;28;20272;-76
2024/01/17 02:58:56;;;;;;;10.93;8.93;;;;;;;-0.86;100.00;98810.53;5021226;28;20658;-74
2024/01/17 03:01:21;;;;;;;10.03;8.90;;;;;;;-0.82;100.00;98803.78;5025509;28;20787;-76
2024/01/17 03:03:47;;;;;;;12.57;10.20;;;;;;;-0.81;100.00;98798.75;5025869;28;20257;-75
2024/01/17 03:06:13;;;;;;;9.80;8.80;;;;;;;-0.77;100.00;98797.09;5027148;28;20212;-75
2024/01/17 03:08:38;;;;;;;10.93;9.10;;;;;;;-0.73;100.00;98790.34;5027506;28;20569;-76
2024/01/17 03:11:04;;;;;;;10.87;9.77;;;;;;;-0.73;100.00;98790.34;5025600;28;20207;-76
2024/01/17 03:13:29;;;;;;;10.30;9.20;;;;;;;-0.77;100.00;98784.38;5028443;28;20209;-77
2024/01/17 03:15:54;;;;;;;10.03;8.77;;;;;;;-0.77;100.00;98784.38;5025307;28;20196;-76
2024/01/17 03:18:19;;;;;;;9.93;8.33;;;;;;;-0.77;100.00;98781.84;5028003;28;20778;-76
2024/01/17 03:20:45;;;;;;;10.47;9.27;;;;;;;-0.78;100.00;98775.94;5038314;28;20856;-76
2024/01/17 03:23:10;;;;;;;10.03;8.73;;;;;;;-0.77;100.00;98766.59;5024124;28;20307;-76
2024/01/17 03:25:35;;;;;;;10.77;9.67;;;;;;;-0.77;100.00;98764.06;5025282;28;20280;-76
2024/01/17 03:28:01;;;;;;;9.90;8.83;;;;;;;-0.79;100.00;98761.50;5022710;28;20187;-76
2024/01/17 03:30:26;;;;;;;9.83;8.83;;;;;;;-0.80;100.00;98747.09;5021936;28;20594;-76
2024/01/17 03:32:51;;;;;;;11.47;9.83;;;;;;;-0.77;100.00;98744.63;5021546;28;20582;-76
2024/01/17 03:35:17;;;;;;;12.67;11.03;;;;;;;-0.82;100.00;98737.75;5019496;28;20677;-75
2024/01/17 03:37:42;;;;;;;12.57;11.13;;;;;;;-0.93;100.00;98725.78;5026907;28;20254;-76
2024/01/17 03:40:08;;;;;;;13.03;10.67;;;;;;;-1.02;100.00;98722.28;5024302;28;20185;-75
2024/01/17 03:42:33;;;;;;;12.50;10.20;;;;;;;-1.16;100.00;98722.09;5024854;28;20233;-76
2024/01/17 03:44:58;;;;;;;13.90;11.17;;;;;;;-1.20;100.00;98722.91;5019927;28;20661;-76
2024/01/17 03:47:24;;;;;;;12.40;11.10;;;;;;;-1.35;100.00;98721.84;5021580;28;20190;-76
2024/01/17 03:49:49;;;;;;;12.67;10.43;;;;;;;-1.46;100.00;98706.47;5021339;28;20488;-77
2024/01/17 03:52:15;;;;;;;13.83;12.33;;;;;;;-1.49;100.00;98700.50;5025380;28;20207;-76
2024/01/17 03:54:41;;;;;;;12.40;10.63;;;;;;;-1.47;100.00;98697.16;5023941;28;20186;-75
2024/01/17 03:57:08;;;;;;;12.77;11.47;;;;;;;-1.46;100.00;98692.94;5026877;28;20247;-76
2024/01/17 03:59:33;;;;;;;12.80;10.37;;;;;;;-1.46;100.00;98677.72;5019416;28;20278;-76
2024/01/17 04:01:59;;;;;;;12.77;10.53;;;;;;;-1.45;100.00;98669.28;5020047;28;20283;-76
2024/01/17 04:04:24;;;;;;;12.10;10.90;;;;;;;-1.46;100.00;98660.81;5026110;28;20213;-75
2024/01/17 04:06:50;;;;;;;11.63;10.40;;;;;;;-1.42;100.00;98664.22;5016464;28;20652;-76
2024/01/17 04:09:15;;;;;;;11.00;9.90;;;;;;;-1.39;100.00;98649.91;5023245;28;20256;-75
2024/01/17 04:11:40;;;;;;;12.63;10.17;;;;;;;-1.34;100.00;98649.97;5026341;28;20360;-76
2024/01/17 04:14:07;;;;;;;12.00;10.03;;;;;;;-1.30;100.00;98639.03;5026157;28;20185;-75
2024/01/17 04:16:35;;;;;;;12.13;10.00;;;;;;;-1.27;100.00;98635.66;5021920;28;20195;-75
2024/01/17 04:19:01;;;;;;;13.10;10.93;;;;;;;-1.32;100.00;98629.66;5023676;28;20631;-75
2024/01/17 04:21:26;;;;;;;12.93;9.70;;;;;;;-1.36;100.00;98626.25;5023768;28;20319;-75
2024/01/17 04:23:52;;;;;;;11.67;10.30;;;;;;;-1.41;100.00;98618.59;5026531;28;20217;-75
2024/01/17 04:26:23;;;;;;;12.33;9.97;;;;;;;-1.36;100.00;98613.56;5025839;28;20181;-76
2024/01/17 04:28:52;;;;;;;12.90;10.53;;;;;;;-1.31;100.00;98606.00;5026434;28;20225;-75
2024/01/17 04:31:28;;;;;;;11.43;10.23;;;;;;;-1.28;100.00;98591.66;5018171;28;20222;-75
2024/01/17 04:33:54;;;;;;;11.37;10.17;;;;;;;-1.28;100.00;98583.19;5026553;28;20180;-75
2024/01/17 04:36:21;;;;;;;13.63;10.70;;;;;;;-1.24;100.00;98578.16;5024618;28;20196;-75
2024/01/17 04:38:46;;;;;;;11.60;10.27;;;;;;;-1.28;100.00;98570.50;5023844;28;20256;-75
2024/01/17 04:41:12;;;;;;;13.10;10.27;;;;;;;-1.25;100.00;98561.22;5034100;28;20222;-76
2024/01/17 04:43:42;;;;;;;12.10;9.80;;;;;;;-1.29;100.00;98559.50;5025499;28;20210;-75
2024/01/17 04:46:09;;;;;;;12.43;10.00;;;;;;;-1.32;100.00;98553.53;5022062;28;20194;-75
2024/01/17 04:48:35;;;;;;;10.40;9.30;;;;;;;-1.31;100.00;98555.22;5019690;28;20204;-76
2024/01/17 04:51:03;;;;;;;12.93;9.97;;;;;;;-1.30;100.00;98546.78;5022135;28;20219;-77
2024/01/17 04:53:28;;;;;;;12.03;9.70;;;;;;;-1.25;100.00;98540.91;5024450;28;20186;-77
2024/01/17 04:55:53;;;;;;;9.33;8.37;;;;;;;-1.25;100.00;98540.09;5026453;28;20687;-75
2024/01/17 04:58:19;;;;;;;11.77;8.83;;;;;;;-1.21;100.00;98536.72;5026425;28;20188;-75
2024/01/17 05:00:47;;;;;;;10.93;9.57;;;;;;;-1.17;100.00;98535.09;5026595;28;20313;-75
2024/01/17 05:03:13;;;;;;;12.03;9.63;;;;;;;-1.15;100.00;98513.94;5020765;28;20196;-75
2024/01/17 05:05:43;;;;;;;9.33;8.33;;;;;;;-1.13;100.00;98514.81;5020948;28;20682;-75
2024/01/17 05:08:09;;;;;;;10.73;8.30;;;;;;;-1.12;100.00;98511.44;5022348;28;20280;-76
2024/01/17 05:10:35;;;;;;;10.40;8.67;;;;;;;-1.10;100.00;98498.75;5025772;28;20335;-75
2024/01/17 05:13:00;;;;;;;10.57;8.47;;;;;;;-1.16;100.00;98496.19;5027403;28;20185;-76
2024/01/17 05:15:25;;;;;;;10.37;8.70;;;;;;;-1.24;100.00;98484.25;5020829;28;20180;-76
2024/01/17 05:17:51;;;;;;;10.63;8.77;;;;;;;-1.26;100.00;98482.53;5019911;28;20218;-75
2024/01/17 05:20:17;;;;;;;10.87;8.80;;;;;;;-1.33;100.00;98475.69;5023294;28;20184;-75
2024/01/17 05:22:42;;;;;;;11.77;8.87;;;;;;;-1.44;100.00;98475.63;5023869;28;20263;-77
2024/01/17 05:25:09;;;;;;;9.37;8.37;;;;;;;-1.50;100.00;98473.00;5022894;28;20587;-76
2024/01/17 05:27:34;;;;;;;9.63;8.67;;;;;;;-1.51;100.00;98464.53;5015716;28;20233;-78
2024/01/17 05:29:59;;;;;;;8.83;7.20;;;;;;;-1.46;100.00;98467.97;5026070;28;20752;-76
2024/01/17 05:32:25;;;;;;;10.23;8.53;;;;;;;-1.31;100.00;98467.28;5015876;28;20312;-76
2024/01/17 05:34:53;;;;;;;10.17;8.53;;;;;;;-1.29;100.00;98458.00;5019405;28;20180;-75
2024/01/17 05:37:21;;;;;;;9.50;7.90;;;;;;;-1.21;100.00;98450.41;5024410;28;20200;-76
2024/01/17 05:39:47;;;;;;;10.20;7.90;;;;;;;-1.13;100.00;98436.13;5022013;28;20191;-76
2024/01/17 05:42:12;;;;;;;10.53;9.50;;;;;;;-1.00;100.00;98424.38;5023678;28;20765;-76
2024/01/17 05:44:37;;;;;;;12.57;9.80;;;;;;;-1.04;100.00;98417.56;5017230;28;20216;-75
2024/01/17 05:47:04;;;;;;;11.33;9.33;;;;;;;-1.05;100.00;98420.09;5020874;28;20258;-76
2024/01/17 05:49:30;;;;;;;9.83;8.50;;;;;;;-1.09;100.00;98415.00;5020893;28;20201;-77
2024/01/17 05:51:55;;;;;;;11.63;9.47;;;;;;;-1.09;100.00;98406.53;5023691;28;20585;-76
2024/01/17 05:54:20;;;;;;;11.30;9.37;;;;;;;-1.09;100.00;98406.53;5021780;28;20655;-75
2024/01/17 05:56:46;;;;;;;10.90;9.60;;;;;;;-1.09;100.00;98411.59;5030795;28;20185;-76
2024/01/17 05:59:13;;;;;;;11.00;8.93;;;;;;;-1.05;100.00;98410.78;5024020;28;20199;-76
2024/01/17 06:01:38;;;;;;;13.00;9.17;;;;;;;-1.04;100.00;98401.47;5024967;28;20617;-76
2024/01/17 06:04:03;;;;;;;11.93;9.30;;;;;;;-1.01;100.00;98393.88;5017332;28;20212;-77
2024/01/17 06:06:29;;;;;;;12.40;9.80;;;;;;;-1.01;100.00;98381.19;5025174;28;20272;-77
2024/01/17 06:08:54;;;;;;;11.47;9.20;;;;;;;-0.99;100.00;98377.84;5021111;28;20229;-77
2024/01/17 06:11:19;;;;;;;12.03;10.23;;;;;;;-0.97;100.00;98370.22;5025881;28;20640;-77
2024/01/17 06:13:45;;;;;;;10.97;9.10;;;;;;;-0.99;100.00;98370.22;5026619;28;20205;-76
2024/01/17 06:16:10;;;;;;;9.73;8.70;;;;;;;-0.96;100.00;98360.06;5026382;28;20215;-77
2024/01/17 06:18:35;;;;;;;10.17;9.07;;;;;;;-0.95;100.00;98358.41;5023944;28;20197;-77
2024/01/17 06:21:00;;;;;;;11.07;8.23;;;;;;;-0.95;100.00;98353.31;5025368;28;20717;-76
2024/01/17 06:23:26;;;;;;;10.40;9.37;;;;;;;-0.93;100.00;98347.41;5021483;28;20224;-77
2024/01/17 06:25:51;;;;;;;10.43;9.13;;;;;;;-0.91;100.00;98342.34;5026405;28;20277;-76
2024/01/17 06:28:18;;;;;;;10.73;8.33;;;;;;;-0.87;100.00;98336.41;5025804;28;20312;-76
2024/01/17 06:30:43;;;;;;;9.73;8.43;;;;;;;-0.82;100.00;98336.44;5025947;28;20208;-77
2024/01/17 06:33:10;;;;;;;10.07;9.07;;;;;;;-0.78;100.00;98336.50;5023349;28;20654;-77
2024/01/17 06:35:35;;;;;;;11.20;8.23;;;;;;;-0.74;100.00;98324.66;5022865;28;20233;-76
2024/01/17 06:38:01;;;;;;;10.00;9.00;;;;;;;-0.68;100.00;98318.75;5029801;28;20249;-78
2024/01/17 06:40:26;;;;;;;12.73;9.80;;;;;;;-0.66;100.00;98324.69;5029531;28;20189;-77
2024/01/17 06:42:52;;;;;;;11.20;9.83;;;;;;;-0.66;100.00;98312.81;5030060;28;20205;-76
2024/01/17 06:45:17;;;;;;;12.10;9.70;;;;;;;-0.65;100.00;98308.59;5029925;28;20736;-77
2024/01/17 06:47:43;;;;;;;10.17;8.97;;;;;;;-0.62;100.00;98293.38;5028957;28;20189;-79
2024/01/17 06:50:09;;;;;;;10.97;9.60;;;;;;;-0.60;100.00;98291.66;5027238;28;20557;-78
2024/01/17 06:52:34;;;;;;;10.83;9.13;;;;;;;-0.60;100.00;98283.19;5029735;28;20992;-76
2024/01/17 06:54:59;;;;;;;10.30;9.23;;;;;;;-0.59;100.00;98284.91;5014702;28;20187;-76
2024/01/17 06:57:25;;;;;;;12.33;10.30;;;;;;;-0.60;100.00;98270.50;5023582;28;20590;-76
2024/01/17 06:59:50;;;;;;;10.63;9.53;;;;;;;-0.59;100.00;98280.66;5022826;28;20251;-76
2024/01/17 07:02:15;;;;;;;10.67;9.57;;;;;;;-0.57;100.00;98275.59;5017138;28;20216;-76
2024/01/17 07:04:42;;;;;;;10.43;9.40;;;;;;;-0.55;100.00;98271.38;5027001;28;20253;-76
2024/01/17 07:07:07;;;;;;;10.37;9.07;;;;;;;-0.49;100.00;98263.75;5023821;28;20186;-77
2024/01/17 07:09:32;;;;;;;10.20;8.73;;;;;;;-0.46;100.00;98251.06;5024197;28;20245;-76
2024/01/17 07:11:58;;;;;;;9.97;8.97;;;;;;;-0.43;100.00;98252.75;5029489;28;20220;-77
2024/01/17 07:14:23;;;;;;;10.73;9.60;;;;;;;-0.43;100.00;98242.59;5021814;28;20184;-77
2024/01/17 07:16:48;;;;;;;9.73;8.80;;;;;;;-0.48;100.00;98240.91;5026050;28;20277;-77
2024/01/17 07:19:14;;;;;;;10.17;9.17;;;;;;;-0.52;100.00;98230.72;5026042;28;20659;-76
2024/01/17 07:21:41;;;;;;;13.37;9.57;;;;;;;-0.52;100.00;98233.25;5017987;28;20214;-76
2024/01/17 07:24:06;;;;;;;10.53;9.43;;;;;;;-0.55;100.00;98236.63;5019654;28;20283;-76
2024/01/17 07:26:31;;;;;;;10.53;9.13;;;;;;;-0.62;100.00;98224.78;5020517;28;20193;-76
2024/01/17 07:28:57;;;;;;;10.43;9.33;;;;;;;-0.60;100.00;98225.59;5020891;28;21126;-77
2024/01/17 07:31:22;;;;;;;11.13;10.03;;;;;;;-0.67;100.00;98218.81;5016036;28;20224;-77
2024/01/17 07:33:47;;;;;;;11.57;9.93;;;;;;;-0.74;100.00;98214.56;5019544;28;20198;-76
2024/01/17 07:36:13;;;;;;;11.63;10.43;;;;;;;-0.76;100.00;98212.03;5018427;28;20270;-76
2024/01/17 07:38:38;;;;;;;12.87;9.17;;;;;;;-0.73;100.00;98211.19;5024794;28;20285;-77
2024/01/17 07:41:04;;;;;;;12.10;9.50;;;;;;;-0.72;100.00;98215.41;5024527;28;20663;-76
2024/01/17 07:43:29;;;;;;;10.40;8.83;;;;;;;-0.61;100.00;98198.53;5019451;28;20206;-77
2024/01/17 07:45:55;;;;;;;11.20;9.43;;;;;;;-0.59;100.00;98198.53;5030865;28;20272;-76
2024/01/17 07:48:21;;;;;;;9.80;8.80;;;;;;;-0.63;100.00;98195.13;5040960;28;20193;-76
2024/01/17 07:50:47;;;;;;;12.47;9.50;;;;;;;-0.83;100.00;98195.09;5027527;28;20597;-75
2024/01/17 07:53:12;;;;;;;10.90;9.40;;;;;;;-0.80;100.00;98188.31;5023241;28;20218;-77
2024/01/17 07:55:39;;;;;;;9.97;8.60;;;;;;;-0.58;100.00;98187.50;5025105;28;20999;-79
2024/01/17 07:58:05;;;;;;;11.67;9.20;;;;;;;-0.81;100.00;98188.28;5028917;28;20208;-76
2024/01/17 08:00:30;;;;;;;11.17;9.37;;;;;;;-1.00;100.00;98184.84;5025639;28;20674;-76
2024/01/17 08:02:56;;;;;;;10.47;9.40;;;;;;;-0.96;100.00;98181.50;5026579;28;20865;-77
2024/01/17 08:05:22;;;;;;;11.30;9.33;;;;;;;-1.05;100.00;98184.84;5022591;28;20625;-76
2024/01/17 08:07:47;;;;;;;11.07;9.70;;;;;;;-1.02;100.00;98178.91;5027302;28;20191;-76
2024/01/17 08:10:13;;;;;;;9.87;8.87;;;;;;;-1.04;100.00;98189.06;5017997;28;20213;-77
2024/01/17 08:12:38;;;;;;;11.50;9.23;;;;;;;-1.02;100.00;98159.47;5026665;28;20213;-76
2024/01/17 08:15:08;;;;;;;10.47;9.37;;;;;;;-0.92;100.00;98167.97;5019237;28;20221;-77
2024/01/17 08:17:33;;;;;;;10.23;8.87;;;;;;;-0.78;100.00;98157.81;5025829;28;20194;-76
2024/01/17 08:19:59;;;;;;;11.27;9.60;;;;;;;-0.72;100.00;98146.84;5026320;28;20228;-77
2024/01/17 08:22:25;;;;;;;12.43;9.47;;;;;;;-0.62;100.00;98158.72;5021369;28;20216;-77
2024/01/17 08:24:50;;;;;;;10.30;9.30;;;;;;;-0.60;100.00;98139.22;5027041;28;20208;-77
2024/01/17 08:27:16;;;;;;;11.20;10.00;;;;;;;-0.56;100.00;98130.78;5027294;28;20185;-76
2024/01/17 08:29:44;;;;;;;11.60;10.47;;;;;;;-0.54;100.00;98121.47;5026522;28;20226;-77
2024/01/17 08:32:10;;;;;;;11.10;10.00;;;;;;;-0.50;100.00;98117.22;5027202;28;20217;-77
2024/01/17 08:34:35;;;;;;;12.20;10.10;;;;;;;-0.46;100.00;98108.75;5026308;28;20193;-77
2024/01/17 08:37:01;;;;;;;11.20;10.00;;;;;;;-0.41;100.00;98103.66;5025434;28;20200;-76
2024/01/17 08:39:27;;;;;;;11.23;9.63;;;;;;;-0.31;100.00;98101.13;5026621;28;20193;-77
2024/01/17 08:41:53;;;;;;;10.73;9.57;;;;;;;-0.28;100.00;98096.91;5024566;28;20320;-77
2024/01/17 08:44:19;;;;;;;10.07;9.07;;;;;;;-0.26;100.00;98092.66;5025445;28;20220;-76
2024/01/17 08:46:46;;;;;;;10.77;8.90;;;;;;;-0.25;100.00;98084.19;5019549;28;20660;-76
2024/01/17 08:49:12;;;;;;;11.57;9.37;;;;;;;-0.19;100.00;98084.16;5020726;28;20197;-77
2024/01/17 08:51:38;;;;;;;10.67;8.63;;;;;;;-0.13;100.00;98079.09;5018118;28;20213;-76
2024/01/17 08:54:06;;;;;;;9.57;8.40;;;;;;;-0.10;100.00;98065.50;5025371;28;20189;-77
2024/01/17 08:56:32;;;;;;;10.20;9.20;;;;;;;-0.04;100.00;98062.97;5026174;28;20227;-77
2024/01/17 08:58:58;;;;;;;10.10;9.10;;;;;;;-0.03;100.00;98060.41;5021455;28;20222;-76
2024/01/17 09:01:23;;;;;;;10.20;9.10;;;;;;;0.00;100.00;98059.59;5025303;28;20671;-76
2024/01/17 09:03:48;;;;;;;9.40;8.20;;;;;;;0.06;100.00;98048.53;5026712;28;20556;-77
2024/01/17 09:06:14;;;;;;;9.57;8.33;;;;;;;0.11;100.00;98042.59;5026395;28;20200;-77
2024/01/17 09:08:39;;;;;;;9.57;8.67;;;;;;;0.14;100.00;98042.59;5024792;28;20192;-77
2024/01/17 09:11:05;;;;;;;9.27;8.37;;;;;;;0.18;100.00;98025.59;5022978;28;20249;-77
2024/01/17 09:13:31;;;;;;;9.27;8.37;;;;;;;0.25;100.00;98028.97;5018198;28;20191;-77
2024/01/17 09:15:57;;;;;;;9.37;8.30;;;;;;;0.27;100.00;98034.91;5018389;28;20285;-77
2024/01/17 09:18:22;;;;;;;9.47;7.47;;;;;;;0.28;100.00;98028.97;5017997;28;20734;-78
2024/01/17 09:20:47;;;;;;;9.43;8.50;;;;;;;0.32;100.00;98022.16;5018314;28;20230;-78
2024/01/17 09:23:13;;;;;;;8.17;7.47;;;;;;;0.34;100.00;98015.38;5014506;28;20215;-77
2024/01/17 09:25:38;;;;;;;8.20;7.40;;;;;;;0.40;100.00;98007.69;5015687;28;20821;-77
2024/01/17 09:28:04;;;;;;;9.17;8.20;;;;;;;0.45;100.00;98004.28;5023049;28;20222;-77
2024/01/17 09:30:29;;;;;;;8.70;7.90;;;;;;;0.46;100.00;97997.50;5022904;28;20203;-77
2024/01/17 09:32:55;;;;;;;9.10;8.20;;;;;;;0.48;100.00;98000.88;5023507;28;20190;-77
2024/01/17 09:35:20;;;;;;;12.07;10.87;;;;;;;0.59;100.00;98001.66;5018030;28;20206;-77
2024/01/17 09:37:45;;;;;;;9.07;8.27;;;;;;;0.59;100.00;97988.94;5019441;28;20868;-78
2024/01/17 09:40:12;;;;;;;9.53;8.63;;;;;;;0.61;100.00;97981.28;5017570;28;20666;-78
2024/01/17 09:42:38;;;;;;;10.63;9.20;;;;;;;0.68;100.00;97975.31;5022787;28;20211;-77
2024/01/17 09:45:04;;;;;;;8.90;8.10;;;;;;;0.72;100.00;97966.81;5020010;28;20223;-77
2024/01/17 09:47:34;;;;;;;12.37;10.47;;;;;;;0.80;100.00;97955.69;5022259;28;20200;-78
2024/01/17 09:50:00;;;;;;;10.50;9.33;;;;;;;0.75;100.00;97955.75;5022875;28;20208;-77
2024/01/17 09:52:25;;;;;;;10.77;9.77;;;;;;;0.79;100.00;97938.72;5027680;28;20361;-77
2024/01/17 09:54:55;;;;;;;10.97;9.50;;;;;;;0.78;100.00;97953.19;5013854;28;20910;-78
2024/01/17 09:57:25;;;;;;;10.27;9.37;;;;;;;0.80;100.00;97938.75;5016537;28;20223;-78
2024/01/17 09:59:57;;;;;;;10.30;9.30;;;;;;;0.83;100.00;97942.97;5021409;28;20195;-78
2024/01/17 10:02:24;;;;;;;9.67;8.67;;;;;;;0.89;100.00;97936.13;5022964;28;20214;-78
2024/01/17 10:04:49;;;;;;;12.40;10.00;;;;;;;0.98;100.00;97926.72;5022168;28;20254;-78
2024/01/17 10:07:17;;;;;;;10.30;9.30;;;;;;;1.01;100.00;97906.31;5023293;28;20184;-78
2024/01/17 10:09:44;;;;;;;9.87;8.60;;;;;;;0.99;100.00;97915.66;5026253;28;20612;-78
2024/01/17 10:12:09;;;;;;;10.63;9.63;;;;;;;1.03;100.00;97896.94;5030336;28;20245;-77
2024/01/17 10:14:36;;;;;;;11.20;9.27;;;;;;;1.04;100.00;97889.31;5029213;28;20915;-78
2024/01/17 10:17:01;;;;;;;10.27;9.27;;;;;;;1.09;100.00;97875.66;5029909;28;20282;-77
2024/01/17 10:19:26;;;;;;;8.90;8.10;;;;;;;1.14;100.00;97879.03;5023692;28;20625;-78
2024/01/17 10:21:52;;;;;;;9.73;8.83;;;;;;;1.22;100.00;97864.50;5017671;28;20211;-78
2024/01/17 10:24:18;;;;;;;9.40;8.50;;;;;;;1.32;100.00;97850.81;5024637;28;20215;-77
2024/01/17 10:26:45;;;;;;;8.80;8.10;;;;;;;1.41;100.00;97851.56;5020376;28;20188;-78
2024/01/17 10:29:15;;;;;;;10.27;9.37;;;;;;;1.46;100.00;97849.81;5029416;28;20198;-76
2024/01/17 10:31:41;;;;;;;9.73;8.73;;;;;;;1.49;100.00;97849.78;5019298;28;20750;-78
2024/01/17 10:34:10;;;;;;;10.03;9.13;;;;;;;1.49;100.00;97847.22;5026947;28;20742;-78
2024/01/17 10:36:39;;;;;;;15.73;14.17;;;;;;;1.46;100.00;97849.81;5029650;28;20194;-77
2024/01/17 10:39:05;;;;;;;13.63;12.33;;;;;;;1.46;100.00;97837.06;5033813;28;20210;-77
2024/01/17 10:41:31;;;;;;;12.67;11.50;;;;;;;1.46;100.00;97860.84;5019732;28;20216;-77
2024/01/17 10:43:57;;;;;;;11.60;10.50;;;;;;;1.46;100.00;97834.50;5021458;28;20200;-78
2024/01/17 10:46:23;;;;;;;11.77;10.57;;;;;;;1.44;100.00;97852.34;5026120;28;20804;-77
2024/01/17 10:48:50;;;;;;;11.13;10.13;;;;;;;1.43;100.00;97843.06;5013644;28;20212;-78
2024/01/17 10:51:24;;;;;;;11.47;10.40;;;;;;;1.45;100.00;97822.63;5029923;28;20207;-77
2024/01/17 10:53:54;;;;;;;13.10;12.00;;;;;;;1.44;100.00;97842.16;5031059;28;20159;-76
2024/01/17 10:56:20;;;;;;;16.77;15.07;;;;;;;1.35;100.00;97820.19;5039052;28;20195;-78
2024/01/17 10:58:51;;;;;;;16.30;14.77;;;;;;;1.30;100.00;97828.72;5029767;28;20556;-77
2024/01/17 11:01:35;;;;;;;15.73;14.23;;;;;;;1.27;100.00;97814.34;5028284;28;20260;-77
2024/01/17 11:04:14;;;;;;;14.93;13.60;;;;;;;1.29;100.00;97819.41;5028160;28;20294;-77
2024/01/17 11:06:40;;;;;;;14.93;13.53;;;;;;;1.32;100.00;97809.19;5026015;28;20263;-77
2024/01/17 11:09:07;;;;;;;16.83;15.33;;;;;;;1.31;100.00;97810.91;5022407;28;20242;-77
2024/01/17 11:11:34;;;;;;;16.27;14.77;;;;;;;1.29;100.00;97810.06;5030251;28;20203;-78
2024/01/17 11:14:01;;;;;;;15.90;14.50;;;;;;;1.25;100.00;97792.28;5028522;28;20521;-78